This is the latest recevied weather packets stored in our database for station/object SP6YY-15. If no packets are shown the sender has not sent any weather packets the latest 10 day(s).
| Time | Temp. | Humidity | Pressure | Rain* | Wind** | Luminosity | Snow |
|---|---|---|---|---|---|---|---|
| 1788505151 | 25° C | 37% | 1001.7 hPa | - | - | - | - |
| 1788504851 | 25° C | 36% | 1001.8 hPa | - | - | - | - |
| 1788504551 | 25° C | 36% | 1001.9 hPa | - | - | - | - |
| 1788503950 | 25.56° C | 31% | 1001.5 hPa | - | - | - | - |
| 1788503650 | 28.33° C | 23% | 1001.7 hPa | - | - | - | - |
| 1788502150 | 27.22° C | 27% | 1001.6 hPa | - | - | - | - |
| 1788435183 | 43.89° C | 24% | 1004.7 hPa | - | - | - | - |
| 1788434583 | 43.33° C | 24% | 1004.9 hPa | - | - | - | - |
| 1788434283 | 42.78° C | 24% | 1004.9 hPa | - | - | - | - |
| 1788433682 | 42.22° C | 25% | 1004.9 hPa | - | - | - | - |
| 1788433082 | 42.22° C | 25% | 1005.1 hPa | - | - | - | - |
| 1788432782 | 42.22° C | 25% | 1005.2 hPa | - | - | - | - |
| 1788432482 | 42.22° C | 25% | 1005.1 hPa | - | - | - | - |
| 1788431581 | 41.67° C | 26% | 1005.4 hPa | - | - | - | - |
| 1788431281 | 41.11° C | 26% | 1005.4 hPa | - | - | - | - |
| 1788430980 | 41.11° C | 26% | 1005.3 hPa | - | - | - | - |
| 1788430680 | 40.56° C | 27% | 1005.4 hPa | - | - | - | - |
| 1788430380 | 40.56° C | 27% | 1005.4 hPa | - | - | - | - |
| 1788430080 | 40° C | 27% | 1005.5 hPa | - | - | - | - |
| 1788429780 | 40° C | 28% | 1005.6 hPa | - | - | - | - |
| 1788429480 | 39.44° C | 28% | 1005.6 hPa | - | - | - | - |
| 1788429180 | 39.44° C | 28% | 1005.6 hPa | - | - | - | - |
| 1788428281 | 38.33° C | 29% | 1005.8 hPa | - | - | - | - |
| 1788427979 | 37.78° C | 30% | 1005.9 hPa | - | - | - | - |
| 1788427679 | 37.22° C | 30% | 1005.9 hPa | - | - | - | - |
* Rain since midnight (hover to see other rain measurements)
** Current wind speed in m/s (hover to see current wind gust speed)